createdAt,value
2022-09-09T00:02:30.960Z,100219.84
2022-09-09T00:05:11.133Z,100212.41
2022-09-09T00:07:49.238Z,100201.09
2022-09-09T00:10:24.761Z,100206.75
2022-09-09T00:13:10.393Z,100213.34
2022-09-09T00:15:52.656Z,100212.16
2022-09-09T00:18:30.421Z,100211.31
2022-09-09T00:21:08.630Z,100213.66
2022-09-09T00:23:43.166Z,100208.06
2022-09-09T00:26:19.050Z,100209.22
2022-09-09T00:28:57.553Z,100205.50
2022-09-09T00:31:32.162Z,100222.25
2022-09-09T00:34:13.966Z,100213.47
2022-09-09T00:36:45.685Z,100222.53
2022-09-09T00:39:33.545Z,100212.28
2022-09-09T00:42:17.119Z,100215.84
2022-09-09T00:45:00.003Z,100214.72
2022-09-09T00:47:51.977Z,100194.75
2022-09-09T00:50:36.786Z,100208.00
2022-09-09T00:53:25.828Z,100199.97
2022-09-09T00:56:06.522Z,100205.16
2022-09-09T00:58:35.849Z,100190.41
2022-09-09T01:01:08.835Z,100197.22
2022-09-09T01:03:46.431Z,100204.78
2022-09-09T01:06:22.199Z,100199.63
2022-09-09T01:09:20.351Z,100196.44
2022-09-09T01:12:01.857Z,100197.09
2022-09-09T01:14:45.442Z,100199.44
2022-09-09T01:17:21.790Z,100203.91
2022-09-09T01:20:13.974Z,100202.31
2022-09-09T01:23:06.084Z,100210.19
2022-09-09T01:26:28.682Z,100193.63
2022-09-09T01:29:01.141Z,100207.84
2022-09-09T01:31:42.087Z,100195.94
2022-09-09T01:34:14.587Z,100201.53
2022-09-09T01:36:52.046Z,100196.25
2022-09-09T01:39:22.430Z,100207.84
2022-09-09T01:42:01.729Z,100197.88
2022-09-09T01:44:32.140Z,100202.63
2022-09-09T01:47:01.631Z,100205.38
2022-09-09T01:49:31.015Z,100202.19
2022-09-09T01:52:01.279Z,100192.59
2022-09-09T01:54:36.269Z,100200.22
2022-09-09T01:57:20.933Z,100204.53
2022-09-09T02:00:07.466Z,100198.56
2022-09-09T02:02:55.775Z,100192.69
2022-09-09T02:05:38.958Z,100185.34
2022-09-09T02:08:23.036Z,100189.34
2022-09-09T02:11:03.388Z,100187.41
2022-09-09T02:13:46.488Z,100186.72
2022-09-09T02:16:26.095Z,100196.16
2022-09-09T02:19:03.424Z,100174.63
2022-09-09T02:21:46.373Z,100179.41
2022-09-09T02:24:18.154Z,100176.28
2022-09-09T02:26:56.814Z,100188.31
2022-09-09T02:29:33.989Z,100181.56
2022-09-09T02:32:09.722Z,100187.09
2022-09-09T02:34:50.207Z,100176.34
2022-09-09T02:37:22.668Z,100179.84
2022-09-09T02:39:55.699Z,100203.03
2022-09-09T02:42:26.140Z,100203.38
2022-09-09T02:44:58.919Z,100194.19
2022-09-09T02:47:37.401Z,100193.03
2022-09-09T02:50:17.938Z,100189.47
2022-09-09T02:53:08.659Z,100197.84
2022-09-09T02:55:49.412Z,100194.34
2022-09-09T02:58:21.738Z,100191.56
2022-09-09T03:01:06.344Z,100190.34
2022-09-09T03:03:35.892Z,100189.56
2022-09-09T03:06:11.053Z,100187.59
2022-09-09T03:08:41.661Z,100135.75
2022-09-09T03:11:15.730Z,100153.81
2022-09-09T03:13:45.621Z,100180.50
2022-09-09T03:16:16.921Z,100170.50
2022-09-09T03:18:50.187Z,100162.59
2022-09-09T03:21:19.575Z,100166.53
2022-09-09T03:23:49.308Z,100171.31
2022-09-09T03:26:18.881Z,100171.31
2022-09-09T03:28:50.895Z,100176.41
2022-09-09T03:31:22.980Z,100170.84
2022-09-09T03:33:53.409Z,100157.97
2022-09-09T03:36:24.056Z,100178.38
2022-09-09T03:38:53.401Z,100174.69
2022-09-09T03:41:25.011Z,100178.75
2022-09-09T03:43:55.813Z,100164.72
2022-09-09T03:46:28.581Z,100168.22
2022-09-09T03:48:58.290Z,100171.25
2022-09-09T03:51:27.515Z,100180.34
2022-09-09T03:53:57.929Z,100165.97
2022-09-09T03:56:28.449Z,100187.44
2022-09-09T03:58:58.613Z,100181.44
2022-09-09T04:01:30.509Z,100182.16
2022-09-09T04:04:00.219Z,100190.16
2022-09-09T04:06:29.810Z,100186.09
2022-09-09T04:08:59.348Z,100180.94
2022-09-09T04:11:29.352Z,100183.63
2022-09-09T04:14:01.226Z,100170.94
2022-09-09T04:16:33.907Z,100162.53
2022-09-09T04:19:05.275Z,100182.69
2022-09-09T04:21:34.670Z,100178.72
2022-09-09T04:24:05.260Z,100185.09
2022-09-09T04:26:34.537Z,100177.53
2022-09-09T04:29:04.213Z,100191.50
2022-09-09T04:31:35.818Z,100185.97
2022-09-09T04:34:06.423Z,100188.78
2022-09-09T04:36:36.731Z,100177.69
2022-09-09T04:39:08.166Z,100197.06
2022-09-09T04:41:37.387Z,100181.09
2022-09-09T04:44:06.995Z,100188.34
2022-09-09T04:46:37.741Z,100189.91
2022-09-09T04:49:08.066Z,100189.81
2022-09-09T04:51:38.379Z,100189.69
2022-09-09T04:54:08.349Z,100189.38
2022-09-09T04:56:39.976Z,100186.19
2022-09-09T04:59:09.278Z,100191.63
2022-09-09T05:01:46.839Z,100176.91
2022-09-09T05:04:16.414Z,100173.56
2022-09-09T05:06:46.944Z,100190.22
2022-09-09T05:09:16.614Z,100198.19
2022-09-09T05:11:47.360Z,100190.69
2022-09-09T05:14:24.240Z,100187.88
2022-09-09T05:16:54.814Z,100193.03
2022-09-09T05:19:25.604Z,100198.50
2022-09-09T05:21:56.146Z,100200.94
2022-09-09T05:24:34.311Z,100167.41
2022-09-09T05:27:06.463Z,100184.47
2022-09-09T05:29:36.178Z,100192.97
2022-09-09T05:32:13.551Z,100200.53
2022-09-09T05:34:45.988Z,100206.41
2022-09-09T05:37:15.248Z,100206.47
2022-09-09T05:39:45.428Z,100200.59
2022-09-09T05:42:15.349Z,100208.06
2022-09-09T05:44:45.981Z,100179.03
2022-09-09T05:47:17.150Z,100216.81
2022-09-09T05:49:46.664Z,100212.72
2022-09-09T05:52:16.076Z,100218.31
2022-09-09T05:54:45.391Z,100215.34
2022-09-09T05:57:14.566Z,100228.56
2022-09-09T05:59:43.828Z,100215.28
2022-09-09T06:02:13.712Z,100230.44
2022-09-09T06:04:44.432Z,100235.97
2022-09-09T06:07:15.850Z,100238.38
2022-09-09T06:09:45.170Z,100235.53
2022-09-09T06:12:15.430Z,100237.56
2022-09-09T06:14:46.543Z,100236.69
2022-09-09T06:17:19.699Z,100241.13
2022-09-09T06:19:53.356Z,100235.66
2022-09-09T06:22:25.144Z,100238.59
2022-09-09T06:24:54.705Z,100251.88
2022-09-09T06:27:23.863Z,100249.25
2022-09-09T06:29:53.470Z,100255.00
2022-09-09T06:32:22.762Z,100255.44
2022-09-09T06:34:54.450Z,100263.00
2022-09-09T06:37:25.200Z,100261.41
2022-09-09T06:39:55.850Z,100270.84
2022-09-09T06:42:25.651Z,100259.81
2022-09-09T06:45:08.278Z,100267.06
2022-09-09T06:47:47.815Z,100284.50
2022-09-09T06:50:19.317Z,100274.94
2022-09-09T06:52:49.804Z,100273.25
2022-09-09T06:55:20.982Z,100290.38
2022-09-09T06:57:51.359Z,100282.19
2022-09-09T07:00:27.192Z,100285.81
2022-09-09T07:02:56.644Z,100292.06
2022-09-09T07:05:27.768Z,100297.97
2022-09-09T07:07:57.483Z,100297.22
2022-09-09T07:10:27.539Z,100280.72
2022-09-09T07:12:58.154Z,100308.41
2022-09-09T07:15:28.453Z,100298.44
2022-09-09T07:17:57.850Z,100320.78
2022-09-09T07:20:32.285Z,100322.44
2022-09-09T07:23:04.645Z,100320.09
2022-09-09T07:25:33.994Z,100332.31
2022-09-09T07:28:04.461Z,100330.13
2022-09-09T07:30:38.349Z,100329.41
2022-09-09T07:33:10.659Z,100335.81
2022-09-09T07:35:41.780Z,100315.19
2022-09-09T07:38:12.327Z,100339.75
2022-09-09T07:40:41.553Z,100341.25
2022-09-09T07:43:13.335Z,100339.84
2022-09-09T07:45:46.115Z,100354.81
2022-09-09T07:48:15.521Z,100355.75
2022-09-09T07:50:48.627Z,100345.50
2022-09-09T07:53:18.584Z,100359.66
2022-09-09T07:55:48.337Z,100360.16
2022-09-09T07:58:17.491Z,100370.63
2022-09-09T08:00:46.787Z,100374.59
2022-09-09T08:03:16.188Z,100372.34
2022-09-09T08:05:45.338Z,100389.88
2022-09-09T08:08:17.423Z,100396.34
2022-09-09T08:10:48.003Z,100376.59
2022-09-09T08:13:19.206Z,100393.13
2022-09-09T08:15:52.257Z,100401.13
2022-09-09T08:18:23.172Z,100405.19
2022-09-09T08:20:52.772Z,100398.50
2022-09-09T08:23:23.565Z,100407.28
2022-09-09T08:25:52.728Z,100414.31
2022-09-09T08:28:22.285Z,100413.44
2022-09-09T08:30:54.381Z,100430.03
2022-09-09T08:33:24.021Z,100425.66
2022-09-09T08:35:54.281Z,100408.81
2022-09-09T08:38:25.744Z,100431.56
2022-09-09T08:41:07.227Z,100429.94
2022-09-09T08:43:36.906Z,100434.06
2022-09-09T08:46:13.876Z,100429.91
2022-09-09T08:48:59.167Z,100434.59
2022-09-09T08:51:31.644Z,100439.94
2022-09-09T08:54:05.616Z,100442.53
2022-09-09T08:56:36.199Z,100443.16
2022-09-09T08:59:07.344Z,100440.06
2022-09-09T09:01:56.077Z,100445.75
2022-09-09T09:05:07.612Z,100469.25
2022-09-09T09:07:56.870Z,100471.22
2022-09-09T09:10:50.090Z,100477.44
2022-09-09T09:13:29.202Z,100474.34
2022-09-09T09:16:09.103Z,100477.13
2022-09-09T09:18:38.918Z,100489.47
2022-09-09T09:21:17.065Z,100497.41
2022-09-09T09:23:55.125Z,100472.31
2022-09-09T09:26:32.140Z,100486.31
2022-09-09T09:29:04.113Z,100504.72
2022-09-09T09:31:33.521Z,100504.81
2022-09-09T09:34:03.551Z,100503.72
2022-09-09T09:36:42.487Z,100510.16
2022-09-09T09:42:21.666Z,100530.09
2022-09-09T09:44:53.469Z,100521.72
2022-09-09T09:47:25.555Z,100525.72
2022-09-09T09:50:03.683Z,100527.31
2022-09-09T09:52:38.560Z,100533.69
2022-09-09T09:55:16.781Z,100538.53
2022-09-09T09:57:50.197Z,100535.44
2022-09-09T10:00:23.029Z,100538.25
2022-09-09T10:03:03.347Z,100548.75
2022-09-09T10:05:38.952Z,100554.41
2022-09-09T10:08:17.628Z,100556.53
2022-09-09T10:11:15.867Z,100542.28
2022-09-09T10:13:55.687Z,100557.59
2022-09-09T10:16:45.359Z,100547.28
2022-09-09T10:19:19.265Z,100553.03
2022-09-09T10:22:18.318Z,100565.34
2022-09-09T10:25:36.381Z,100565.56
2022-09-09T10:28:59.944Z,100570.41
2022-09-09T10:31:39.617Z,100571.97
2022-09-09T10:34:29.771Z,100574.47
2022-09-09T10:37:01.661Z,100581.31
2022-09-09T10:39:43.176Z,100579.84
2022-09-09T10:42:16.431Z,100579.16
2022-09-09T10:45:04.217Z,100566.47
2022-09-09T10:48:06.999Z,100587.22
2022-09-09T10:51:01.112Z,100577.28
2022-09-09T10:53:47.597Z,100575.97
2022-09-09T10:56:20.933Z,100571.50
2022-09-09T10:58:54.627Z,100588.22
2022-09-09T11:01:30.400Z,100595.22
2022-09-09T11:04:05.863Z,100585.22
2022-09-09T11:06:42.122Z,100587.91
2022-09-09T11:09:18.148Z,100601.81
2022-09-09T11:11:55.405Z,100605.72
2022-09-09T11:14:37.403Z,100607.28
2022-09-09T11:17:15.899Z,100600.09
2022-09-09T11:19:46.503Z,100620.19
2022-09-09T11:22:30.494Z,100597.53
2022-09-09T11:25:05.895Z,100607.53
2022-09-09T11:27:45.476Z,100621.50
2022-09-09T11:30:44.559Z,100620.72
2022-09-09T11:34:00.523Z,100624.28
2022-09-09T11:37:08.336Z,100629.09
2022-09-09T11:40:16.291Z,100628.66
2022-09-09T11:42:45.818Z,100619.47
2022-09-09T11:45:28.342Z,100636.53
2022-09-09T11:48:00.060Z,100636.41
2022-09-09T11:50:39.028Z,100642.28
2022-09-09T11:53:25.907Z,100628.47
2022-09-09T11:56:14.078Z,100641.88
2022-09-09T11:58:58.786Z,100617.53
2022-09-09T12:01:38.253Z,100636.75
2022-09-09T12:04:35.028Z,100634.84
2022-09-09T12:07:24.893Z,100623.28
2022-09-09T12:09:59.709Z,100644.06
2022-09-09T12:12:33.957Z,100626.91
2022-09-09T12:15:25.644Z,100643.22
2022-09-09T12:18:02.126Z,100641.72
2022-09-09T12:20:37.279Z,100626.94
2022-09-09T12:23:32.110Z,100643.53
2022-09-09T12:26:21.896Z,100642.22
2022-09-09T12:29:05.692Z,100637.41
2022-09-09T12:31:45.754Z,100645.41
2022-09-09T12:34:22.783Z,100630.75
2022-09-09T12:36:59.534Z,100655.91
2022-09-09T12:39:38.651Z,100639.66
2022-09-09T12:42:18.640Z,100650.47
2022-09-09T12:44:56.511Z,100657.66
2022-09-09T12:47:34.758Z,100663.25
2022-09-09T12:50:04.282Z,100662.84
2022-09-09T12:52:38.381Z,100662.41
2022-09-09T12:55:10.246Z,100650.44
2022-09-09T12:57:41.689Z,100639.28
2022-09-09T13:00:18.549Z,100666.03
2022-09-09T13:02:54.147Z,100666.84
2022-09-09T13:05:29.195Z,100673.56
2022-09-09T13:08:04.657Z,100674.34
2022-09-09T13:11:01.782Z,100657.19
2022-09-09T13:13:42.182Z,100687.94
2022-09-09T13:16:24.044Z,100690.75
2022-09-09T13:18:54.122Z,100689.53
2022-09-09T13:21:35.648Z,100691.91
2022-09-09T13:24:08.652Z,100697.47
2022-09-09T13:26:39.625Z,100698.22
2022-09-09T13:29:20.229Z,100687.88
2022-09-09T13:31:53.636Z,100689.88
2022-09-09T13:34:32.716Z,100681.59
2022-09-09T13:37:06.316Z,100685.97
2022-09-09T13:39:38.081Z,100711.88
2022-09-09T13:42:26.442Z,100715.84
2022-09-09T13:44:56.934Z,100716.66
2022-09-09T13:47:33.824Z,100721.31
2022-09-09T13:50:22.147Z,100710.47
2022-09-09T13:52:52.570Z,100727.59
2022-09-09T13:55:24.563Z,100722.72
2022-09-09T13:57:57.253Z,100713.91
2022-09-09T14:00:27.457Z,100723.94
2022-09-09T14:02:57.121Z,100719.59
2022-09-09T14:05:26.453Z,100715.22
2022-09-09T14:07:55.936Z,100736.38
2022-09-09T14:10:25.093Z,100727.59
2022-09-09T14:12:55.760Z,100732.41
2022-09-09T14:15:25.224Z,100734.78
2022-09-09T14:17:54.420Z,100740.38
2022-09-09T14:20:23.646Z,100746.69
2022-09-09T14:22:54.497Z,100739.81
2022-09-09T14:25:23.688Z,100749.72
2022-09-09T14:27:54.234Z,100754.41
2022-09-09T14:30:23.364Z,100745.59
2022-09-09T14:32:52.667Z,100753.50
2022-09-09T14:35:23.344Z,100751.13
2022-09-09T14:37:52.849Z,100763.84
2022-09-09T14:40:22.571Z,100761.47
2022-09-09T14:42:52.374Z,100770.22
2022-09-09T14:45:25.941Z,100771.06
2022-09-09T14:47:55.584Z,100768.59
2022-09-09T14:50:26.263Z,100744.88
2022-09-09T14:52:55.443Z,100762.94
2022-09-09T14:55:24.690Z,100765.59
2022-09-09T14:57:53.896Z,100770.38
2022-09-09T15:02:55.889Z,100776.78
2022-09-09T15:05:25.458Z,100762.50
2022-09-09T15:07:54.560Z,100776.09
2022-09-09T15:10:23.702Z,100768.88
2022-09-09T15:12:52.854Z,100777.28
2022-09-09T15:15:23.391Z,100767.28
2022-09-09T15:17:52.532Z,100777.69
2022-09-09T15:20:21.646Z,100774.88
2022-09-09T15:22:51.948Z,100770.88
2022-09-09T15:25:22.937Z,100784.81
2022-09-09T15:27:52.154Z,100784.41
2022-09-09T15:30:21.410Z,100784.41
2022-09-09T15:32:54.085Z,100784.41
2022-09-09T15:35:23.317Z,100796.41
2022-09-09T15:37:52.467Z,100793.97
2022-09-09T15:40:21.729Z,100792.00
2022-09-09T15:42:50.943Z,100805.53
2022-09-09T15:45:21.678Z,100785.13
2022-09-09T15:47:53.031Z,100801.03
2022-09-09T15:50:22.278Z,100803.41
2022-09-09T15:52:53.369Z,100804.13
2022-09-09T15:55:23.185Z,100800.91
2022-09-09T15:57:53.269Z,100791.31
2022-09-09T16:00:23.763Z,100787.66
2022-09-09T16:02:57.566Z,100800.81
2022-09-09T16:05:26.921Z,100795.94
2022-09-09T16:07:59.435Z,100792.31
2022-09-09T16:10:30.313Z,100805.09
2022-09-09T16:13:02.944Z,100806.69
2022-09-09T16:15:32.324Z,100816.22
2022-09-09T16:18:05.392Z,100814.22
2022-09-09T16:20:34.544Z,100819.38
2022-09-09T16:23:04.027Z,100818.97
2022-09-09T16:25:33.436Z,100801.81
2022-09-09T16:28:02.911Z,100828.91
2022-09-09T16:30:35.204Z,100835.63
2022-09-09T16:33:09.041Z,100827.53
2022-09-09T16:35:41.493Z,100844.59
2022-09-09T16:38:11.127Z,100839.44
2022-09-09T16:40:43.029Z,100851.75
2022-09-09T16:43:16.514Z,100835.38
2022-09-09T16:45:46.490Z,100847.31
2022-09-09T16:48:18.825Z,100854.88
2022-09-09T16:50:48.051Z,100860.81
2022-09-09T16:53:19.872Z,100851.16
2022-09-09T16:55:49.319Z,100865.06
2022-09-09T16:58:19.014Z,100863.44
2022-09-09T17:00:50.076Z,100865.69
2022-09-09T17:03:20.889Z,100865.66
2022-09-09T17:05:50.069Z,100856.41
2022-09-09T17:08:19.338Z,100872.34
2022-09-09T17:10:49.311Z,100881.47
2022-09-09T17:13:20.772Z,100852.25
2022-09-09T17:15:50.170Z,100885.03
2022-09-09T17:18:21.748Z,100881.81
2022-09-09T17:20:50.969Z,100883.00
2022-09-09T17:23:20.661Z,100884.56
2022-09-09T17:25:59.161Z,100867.31
2022-09-09T17:28:32.167Z,100874.06
2022-09-09T17:31:04.012Z,100870.84
2022-09-09T17:33:35.679Z,100894.38
2022-09-09T17:36:12.283Z,100882.28
2022-09-09T17:38:43.593Z,100902.94
2022-09-09T17:41:16.815Z,100907.22
2022-09-09T17:43:46.912Z,100898.78
2022-09-09T17:46:20.797Z,100909.91
2022-09-09T17:48:54.014Z,100901.53
2022-09-09T17:51:27.160Z,100909.88
2022-09-09T17:53:59.435Z,100918.59
2022-09-09T17:56:31.664Z,100927.28
2022-09-09T17:59:03.049Z,100920.25
2022-09-09T18:01:34.479Z,100930.16
2022-09-09T18:04:07.832Z,100938.88
2022-09-09T18:06:39.450Z,100937.22
2022-09-09T18:09:13.314Z,100944.59
2022-09-09T18:11:45.487Z,100942.38
2022-09-09T18:14:18.224Z,100950.28
2022-09-09T18:16:48.549Z,100954.53
2022-09-09T18:19:22.936Z,100951.22
2022-09-09T18:21:52.571Z,100947.78
2022-09-09T18:24:23.432Z,100958.88
2022-09-09T18:26:53.642Z,100958.00
2022-09-09T18:29:25.546Z,100957.78
2022-09-09T18:31:56.594Z,100960.50
2022-09-09T18:34:28.844Z,100977.28
2022-09-09T18:36:59.042Z,100972.41
2022-09-09T18:39:30.849Z,100952.75
2022-09-09T18:42:02.471Z,100972.31
2022-09-09T18:44:33.736Z,100968.97
2022-09-09T18:47:04.121Z,100959.78
2022-09-09T18:49:34.684Z,100977.38
2022-09-09T18:52:04.868Z,100983.28
2022-09-09T18:54:34.825Z,100993.56
2022-09-09T18:57:04.005Z,100976.78
2022-09-09T18:59:33.555Z,100992.06
2022-09-09T19:02:02.783Z,100996.06
2022-09-09T19:04:34.154Z,100990.69
2022-09-09T19:07:03.276Z,101003.47
2022-09-09T19:09:34.357Z,101014.25
2022-09-09T19:12:05.898Z,101022.56
2022-09-09T19:14:35.201Z,101022.56
2022-09-09T19:17:05.007Z,101028.91
2022-09-09T19:19:35.918Z,101031.63
2022-09-09T19:22:07.005Z,101030.75
2022-09-09T19:24:37.621Z,101043.16
2022-09-09T19:27:08.813Z,101029.13
2022-09-09T19:29:42.852Z,101014.97
2022-09-09T19:35:03.308Z,101057.47
2022-09-09T19:37:32.814Z,101055.28
2022-09-09T19:40:02.428Z,101054.09
2022-09-09T19:42:32.280Z,101062.94
2022-09-09T19:45:01.721Z,101038.09
2022-09-09T19:47:30.974Z,101064.50
2022-09-09T19:50:00.240Z,101055.22
2022-09-09T19:52:31.167Z,101069.94
2022-09-09T19:55:01.345Z,101066.81
2022-09-09T19:57:31.114Z,101078.06
2022-09-09T20:00:00.982Z,101084.41
2022-09-09T20:02:31.105Z,101103.44
2022-09-09T20:05:00.289Z,101085.63
2022-09-09T20:07:30.885Z,101114.13
2022-09-09T20:10:00.442Z,101099.38
2022-09-09T20:12:29.833Z,101122.88
2022-09-09T20:14:58.978Z,101122.16
2022-09-09T20:17:28.147Z,101123.69
2022-09-09T20:19:57.676Z,101131.56
2022-09-09T20:22:26.881Z,101134.72
2022-09-09T20:24:57.473Z,101133.47
2022-09-09T20:27:27.716Z,101129.91
2022-09-09T20:29:56.861Z,101137.03
2022-09-09T20:32:26.205Z,101077.53
2022-09-09T20:34:55.673Z,101145.28
2022-09-09T20:37:25.072Z,101131.22
2022-09-09T20:39:55.910Z,101144.03
2022-09-09T20:42:26.531Z,101135.00
2022-09-09T20:44:55.685Z,101150.94
2022-09-09T20:47:24.986Z,101158.91
2022-09-09T20:49:54.223Z,101163.63
2022-09-09T20:52:23.410Z,101165.63
2022-09-09T20:54:54.311Z,101166.34
2022-09-09T20:57:24.597Z,101163.09
2022-09-09T20:59:55.201Z,101161.50
2022-09-09T21:02:24.459Z,101161.88
2022-09-09T21:04:54.073Z,101165.44
2022-09-09T21:07:24.094Z,101168.13
2022-09-09T21:09:57.836Z,101184.50
2022-09-09T21:12:27.945Z,101179.66
2022-09-09T21:14:58.879Z,101181.16
2022-09-09T21:17:29.016Z,101177.16
2022-09-09T21:19:58.256Z,101171.00
2022-09-09T21:22:27.428Z,101179.31
2022-09-09T21:24:56.796Z,101183.97
2022-09-09T21:27:26.170Z,101176.66
2022-09-09T21:29:55.289Z,101176.50
2022-09-09T21:32:25.938Z,101173.19
2022-09-09T21:34:55.232Z,101180.00
2022-09-09T21:37:24.441Z,101181.88
2022-09-09T21:39:57.025Z,101187.41
2022-09-09T21:42:28.569Z,101193.66
2022-09-09T21:44:57.848Z,101196.25
2022-09-09T21:47:28.458Z,101197.66
2022-09-09T21:49:57.550Z,101191.94
2022-09-09T21:52:26.804Z,101189.78
2022-09-09T21:54:56.004Z,101196.84
2022-09-09T21:57:25.742Z,101184.75
2022-09-09T21:59:55.037Z,101189.41
2022-09-09T22:02:24.746Z,101204.94
2022-09-09T22:04:55.409Z,101152.81
2022-09-09T22:07:24.726Z,101205.91
2022-09-09T22:09:53.945Z,101182.25
2022-09-09T22:12:23.032Z,101191.00
2022-09-09T22:14:53.481Z,101207.81
2022-09-09T22:17:24.950Z,101199.09
2022-09-09T22:19:55.608Z,101211.66
2022-09-09T22:22:24.832Z,101200.00
2022-09-09T22:24:54.028Z,101216.91
2022-09-09T22:27:23.286Z,101203.94
2022-09-09T22:29:52.557Z,101219.69
2022-09-09T22:32:22.873Z,101218.88
2022-09-09T22:34:52.150Z,101214.88
2022-09-09T22:37:23.302Z,101221.19
2022-09-09T22:39:52.516Z,101214.75
2022-09-09T22:42:22.836Z,101199.75
2022-09-09T22:44:52.054Z,101216.81
2022-09-09T22:47:21.272Z,101220.28
2022-09-09T22:49:50.476Z,101202.09
2022-09-09T22:52:21.042Z,101229.28
2022-09-09T22:54:50.133Z,101203.72
2022-09-09T22:57:19.575Z,101227.44
2022-09-09T22:59:50.038Z,101221.25
2022-09-09T23:02:20.777Z,101232.09
2022-09-09T23:04:50.281Z,101227.13
2022-09-09T23:07:21.021Z,101237.84
2022-09-09T23:09:51.665Z,101225.41
2022-09-09T23:12:22.269Z,101235.31
2022-09-09T23:14:52.101Z,101245.47
2022-09-09T23:17:21.575Z,101236.50
2022-09-09T23:19:53.345Z,101236.50
2022-09-09T23:22:23.103Z,101249.63
2022-09-09T23:24:54.124Z,101231.19
2022-09-09T23:27:23.335Z,101233.50
2022-09-09T23:29:52.527Z,101236.03
2022-09-09T23:32:22.069Z,101218.28
2022-09-09T23:34:51.827Z,101244.56
2022-09-09T23:37:21.046Z,101241.69
2022-09-09T23:39:50.240Z,101251.34
2022-09-09T23:42:20.881Z,101244.91
2022-09-09T23:44:50.932Z,101251.59
2022-09-09T23:47:20.100Z,101246.63
2022-09-09T23:49:50.711Z,101251.00
2022-09-09T23:52:19.970Z,101230.00
2022-09-09T23:54:49.965Z,101251.00
2022-09-09T23:57:21.883Z,101256.03
2022-09-09T23:59:51.203Z,101256.34
